sensor_id;sensor_type;location;lat;lon;timestamp;P1;durP1;ratioP1;P2;durP2;ratioP2
41311;SDS011;27061;41.648;24.568;2023-11-21T00:00:03;39.97;;;10.73;;
41311;SDS011;27061;41.648;24.568;2023-11-21T00:05:10;37.38;;;6.85;;
41311;SDS011;27061;41.648;24.568;2023-11-21T00:07:41;39.40;;;18.45;;
41311;SDS011;27061;41.648;24.568;2023-11-21T00:10:09;18.45;;;9.48;;
41311;SDS011;27061;41.648;24.568;2023-11-21T00:12:38;67.90;;;13.40;;
41311;SDS011;27061;41.648;24.568;2023-11-21T00:15:05;29.90;;;11.63;;
41311;SDS011;27061;41.648;24.568;2023-11-21T00:17:39;17.55;;;6.72;;
41311;SDS011;27061;41.648;24.568;2023-11-21T00:20:06;50.97;;;9.75;;
41311;SDS011;27061;41.648;24.568;2023-11-21T00:22:34;67.35;;;5.40;;
41311;SDS011;27061;41.648;24.568;2023-11-21T00:25:02;32.05;;;12.52;;
41311;SDS011;27061;41.648;24.568;2023-11-21T00:27:30;6.82;;;2.42;;
41311;SDS011;27061;41.648;24.568;2023-11-21T00:29:58;46.35;;;11.57;;
41311;SDS011;27061;41.648;24.568;2023-11-21T00:32:26;24.20;;;6.05;;
41311;SDS011;27061;41.648;24.568;2023-11-21T00:34:53;26.17;;;6.93;;
41311;SDS011;27061;41.648;24.568;2023-11-21T00:37:21;23.58;;;4.97;;
41311;SDS011;27061;41.648;24.568;2023-11-21T00:39:48;13.55;;;3.38;;
41311;SDS011;27061;41.648;24.568;2023-11-21T00:42:16;19.50;;;4.25;;
41311;SDS011;27061;41.648;24.568;2023-11-21T00:44:44;13.88;;;6.60;;
41311;SDS011;27061;41.648;24.568;2023-11-21T00:47:18;11.98;;;3.70;;
41311;SDS011;27061;41.648;24.568;2023-11-21T00:49:46;17.13;;;4.88;;
41311;SDS011;27061;41.648;24.568;2023-11-21T00:52:14;11.57;;;4.07;;
41311;SDS011;27061;41.648;24.568;2023-11-21T00:54:42;15.32;;;3.72;;
41311;SDS011;27061;41.648;24.568;2023-11-21T00:57:10;5.63;;;3.67;;
41311;SDS011;27061;41.648;24.568;2023-11-21T00:59:38;12.10;;;3.08;;
41311;SDS011;27061;41.648;24.568;2023-11-21T01:02:06;20.17;;;3.35;;
41311;SDS011;27061;41.648;24.568;2023-11-21T01:04:37;14.65;;;3.25;;
41311;SDS011;27061;41.648;24.568;2023-11-21T01:07:05;13.15;;;4.32;;
41311;SDS011;27061;41.648;24.568;2023-11-21T01:09:32;6.07;;;2.60;;
41311;SDS011;27061;41.648;24.568;2023-11-21T01:12:00;21.95;;;5.03;;
41311;SDS011;27061;41.648;24.568;2023-11-21T01:14:27;7.05;;;2.00;;
41311;SDS011;27061;41.648;24.568;2023-11-21T01:16:56;4.50;;;2.42;;
41311;SDS011;27061;41.648;24.568;2023-11-21T01:19:24;12.65;;;1.88;;
41311;SDS011;27061;41.648;24.568;2023-11-21T01:21:51;1.20;;;1.15;;
41311;SDS011;27061;41.648;24.568;2023-11-21T01:24:19;12.27;;;1.60;;
41311;SDS011;27061;41.648;24.568;2023-11-21T01:26:46;12.50;;;1.88;;
41311;SDS011;27061;41.648;24.568;2023-11-21T01:29:14;11.80;;;1.95;;
41311;SDS011;27061;41.648;24.568;2023-11-21T01:31:41;8.05;;;1.10;;
41311;SDS011;27061;41.648;24.568;2023-11-21T01:34:10;2.65;;;1.00;;
41311;SDS011;27061;41.648;24.568;2023-11-21T01:36:37;18.38;;;1.55;;
41311;SDS011;27061;41.648;24.568;2023-11-21T01:39:05;8.40;;;1.52;;
41311;SDS011;27061;41.648;24.568;2023-11-21T01:41:35;1.90;;;0.63;;
41311;SDS011;27061;41.648;24.568;2023-11-21T01:44:03;8.13;;;0.80;;
41311;SDS011;27061;41.648;24.568;2023-11-21T01:46:34;3.58;;;0.70;;
41311;SDS011;27061;41.648;24.568;2023-11-21T01:49:02;5.43;;;0.65;;
41311;SDS011;27061;41.648;24.568;2023-11-21T01:51:30;3.67;;;0.70;;
41311;SDS011;27061;41.648;24.568;2023-11-21T01:53:58;4.97;;;0.65;;
41311;SDS011;27061;41.648;24.568;2023-11-21T01:56:26;4.38;;;0.70;;
41311;SDS011;27061;41.648;24.568;2023-11-21T01:58:53;6.95;;;1.40;;
41311;SDS011;27061;41.648;24.568;2023-11-21T02:01:22;0.50;;;0.43;;
41311;SDS011;27061;41.648;24.568;2023-11-21T02:03:49;0.40;;;0.40;;
41311;SDS011;27061;41.648;24.568;2023-11-21T02:06:16;7.78;;;0.95;;
41311;SDS011;27061;41.648;24.568;2023-11-21T02:08:45;81.50;;;5.57;;
41311;SDS011;27061;41.648;24.568;2023-11-21T02:11:12;4.63;;;0.52;;
41311;SDS011;27061;41.648;24.568;2023-11-21T02:13:39;18.95;;;1.65;;
41311;SDS011;27061;41.648;24.568;2023-11-21T02:16:10;8.32;;;1.42;;
41311;SDS011;27061;41.648;24.568;2023-11-21T02:18:39;21.77;;;2.78;;
41311;SDS011;27061;41.648;24.568;2023-11-21T02:21:07;5.22;;;0.77;;
41311;SDS011;27061;41.648;24.568;2023-11-21T02:23:34;12.35;;;1.17;;
41311;SDS011;27061;41.648;24.568;2023-11-21T02:26:02;12.07;;;2.25;;
41311;SDS011;27061;41.648;24.568;2023-11-21T02:28:31;10.00;;;0.80;;
41311;SDS011;27061;41.648;24.568;2023-11-21T02:31:00;9.35;;;0.60;;
41311;SDS011;27061;41.648;24.568;2023-11-21T02:33:29;4.30;;;0.43;;
41311;SDS011;27061;41.648;24.568;2023-11-21T02:36:01;19.42;;;1.13;;
41311;SDS011;27061;41.648;24.568;2023-11-21T02:38:29;2.75;;;0.60;;
41311;SDS011;27061;41.648;24.568;2023-11-21T02:40:57;9.50;;;0.68;;
41311;SDS011;27061;41.648;24.568;2023-11-21T02:43:26;37.85;;;2.25;;
41311;SDS011;27061;41.648;24.568;2023-11-21T02:45:53;15.40;;;0.77;;
41311;SDS011;27061;41.648;24.568;2023-11-21T02:48:21;4.05;;;0.70;;
41311;SDS011;27061;41.648;24.568;2023-11-21T02:50:50;8.68;;;1.05;;
41311;SDS011;27061;41.648;24.568;2023-11-21T02:53:20;15.88;;;0.95;;
41311;SDS011;27061;41.648;24.568;2023-11-21T02:55:47;14.80;;;0.90;;
41311;SDS011;27061;41.648;24.568;2023-11-21T02:58:14;28.60;;;1.65;;
41311;SDS011;27061;41.648;24.568;2023-11-21T03:00:42;2.63;;;0.70;;
41311;SDS011;27061;41.648;24.568;2023-11-21T03:03:09;4.63;;;1.90;;
41311;SDS011;27061;41.648;24.568;2023-11-21T03:05:37;20.60;;;1.10;;
41311;SDS011;27061;41.648;24.568;2023-11-21T03:08:07;12.30;;;1.50;;
41311;SDS011;27061;41.648;24.568;2023-11-21T03:10:34;28.23;;;1.95;;
41311;SDS011;27061;41.648;24.568;2023-11-21T03:13:02;48.25;;;2.83;;
41311;SDS011;27061;41.648;24.568;2023-11-21T03:15:31;14.95;;;1.05;;
41311;SDS011;27061;41.648;24.568;2023-11-21T03:17:59;21.08;;;2.40;;
41311;SDS011;27061;41.648;24.568;2023-11-21T03:20:27;8.20;;;1.33;;
41311;SDS011;27061;41.648;24.568;2023-11-21T03:22:55;25.13;;;2.38;;
41311;SDS011;27061;41.648;24.568;2023-11-21T03:25:23;45.50;;;3.70;;
41311;SDS011;27061;41.648;24.568;2023-11-21T03:27:51;19.75;;;2.20;;
41311;SDS011;27061;41.648;24.568;2023-11-21T03:30:18;36.28;;;1.75;;
41311;SDS011;27061;41.648;24.568;2023-11-21T03:32:46;18.15;;;1.63;;
41311;SDS011;27061;41.648;24.568;2023-11-21T03:35:13;30.58;;;1.48;;
41311;SDS011;27061;41.648;24.568;2023-11-21T03:37:42;12.95;;;1.13;;
41311;SDS011;27061;41.648;24.568;2023-11-21T03:40:11;14.98;;;0.80;;
41311;SDS011;27061;41.648;24.568;2023-11-21T03:42:39;13.18;;;1.08;;
41311;SDS011;27061;41.648;24.568;2023-11-21T03:45:07;7.63;;;0.80;;
41311;SDS011;27061;41.648;24.568;2023-11-21T03:47:35;11.00;;;1.00;;
41311;SDS011;27061;41.648;24.568;2023-11-21T03:50:03;54.92;;;1.95;;
41311;SDS011;27061;41.648;24.568;2023-11-21T03:52:30;6.85;;;0.63;;
41311;SDS011;27061;41.648;24.568;2023-11-21T03:54:59;25.63;;;1.48;;
41311;SDS011;27061;41.648;24.568;2023-11-21T03:57:27;21.23;;;0.80;;
41311;SDS011;27061;41.648;24.568;2023-11-21T03:59:57;14.13;;;0.90;;
41311;SDS011;27061;41.648;24.568;2023-11-21T04:02:24;0.30;;;0.30;;
41311;SDS011;27061;41.648;24.568;2023-11-21T04:04:55;30.98;;;1.83;;
41311;SDS011;27061;41.648;24.568;2023-11-21T04:07:23;4.82;;;0.60;;
41311;SDS011;27061;41.648;24.568;2023-11-21T04:09:50;1.65;;;0.52;;
41311;SDS011;27061;41.648;24.568;2023-11-21T04:12:18;0.85;;;0.57;;
41311;SDS011;27061;41.648;24.568;2023-11-21T04:14:45;3.78;;;0.68;;
41311;SDS011;27061;41.648;24.568;2023-11-21T04:17:13;1.40;;;0.50;;
41311;SDS011;27061;41.648;24.568;2023-11-21T04:19:40;2.50;;;0.50;;
41311;SDS011;27061;41.648;24.568;2023-11-21T04:22:07;6.30;;;0.60;;
41311;SDS011;27061;41.648;24.568;2023-11-21T04:24:35;14.02;;;1.90;;
41311;SDS011;27061;41.648;24.568;2023-11-21T04:27:02;45.83;;;2.38;;
41311;SDS011;27061;41.648;24.568;2023-11-21T04:29:29;39.47;;;2.60;;
41311;SDS011;27061;41.648;24.568;2023-11-21T04:31:57;45.75;;;3.05;;
41311;SDS011;27061;41.648;24.568;2023-11-21T04:34:24;12.65;;;1.67;;
41311;SDS011;27061;41.648;24.568;2023-11-21T04:36:51;10.25;;;0.90;;
41311;SDS011;27061;41.648;24.568;2023-11-21T04:39:19;25.67;;;2.03;;
41311;SDS011;27061;41.648;24.568;2023-11-21T04:41:46;36.65;;;1.92;;
41311;SDS011;27061;41.648;24.568;2023-11-21T04:44:14;13.15;;;1.02;;
41311;SDS011;27061;41.648;24.568;2023-11-21T04:46:43;22.00;;;1.10;;
41311;SDS011;27061;41.648;24.568;2023-11-21T04:49:10;23.25;;;8.40;;
41311;SDS011;27061;41.648;24.568;2023-11-21T04:51:38;15.88;;;5.25;;
41311;SDS011;27061;41.648;24.568;2023-11-21T04:54:05;154.45;;;64.85;;
41311;SDS011;27061;41.648;24.568;2023-11-21T04:56:32;157.70;;;56.13;;
41311;SDS011;27061;41.648;24.568;2023-11-21T04:59:00;45.50;;;23.27;;
41311;SDS011;27061;41.648;24.568;2023-11-21T05:01:27;70.18;;;37.88;;
41311;SDS011;27061;41.648;24.568;2023-11-21T05:03:54;52.88;;;19.77;;
41311;SDS011;27061;41.648;24.568;2023-11-21T05:06:23;64.72;;;14.00;;
41311;SDS011;27061;41.648;24.568;2023-11-21T05:08:50;98.53;;;17.70;;
41311;SDS011;27061;41.648;24.568;2023-11-21T05:11:25;22.75;;;6.00;;
41311;SDS011;27061;41.648;24.568;2023-11-21T05:13:55;33.65;;;7.88;;
41311;SDS011;27061;41.648;24.568;2023-11-21T05:16:25;7.13;;;2.10;;
41311;SDS011;27061;41.648;24.568;2023-11-21T05:18:54;38.72;;;4.97;;
41311;SDS011;27061;41.648;24.568;2023-11-21T05:21:27;20.42;;;3.58;;
41311;SDS011;27061;41.648;24.568;2023-11-21T05:23:56;14.23;;;4.60;;
41311;SDS011;27061;41.648;24.568;2023-11-21T05:26:24;24.17;;;5.95;;
41311;SDS011;27061;41.648;24.568;2023-11-21T05:28:51;19.27;;;3.83;;
41311;SDS011;27061;41.648;24.568;2023-11-21T05:31:19;56.42;;;5.57;;
41311;SDS011;27061;41.648;24.568;2023-11-21T05:33:46;28.83;;;6.00;;
41311;SDS011;27061;41.648;24.568;2023-11-21T05:36:14;34.50;;;11.07;;
41311;SDS011;27061;41.648;24.568;2023-11-21T05:38:41;60.10;;;12.90;;
41311;SDS011;27061;41.648;24.568;2023-11-21T05:41:08;74.78;;;6.10;;
41311;SDS011;27061;41.648;24.568;2023-11-21T05:43:38;33.40;;;10.80;;
41311;SDS011;27061;41.648;24.568;2023-11-21T05:46:05;52.22;;;6.05;;
41311;SDS011;27061;41.648;24.568;2023-11-21T05:48:34;47.38;;;3.55;;
41311;SDS011;27061;41.648;24.568;2023-11-21T05:51:04;27.55;;;4.00;;
41311;SDS011;27061;41.648;24.568;2023-11-21T05:53:33;27.35;;;1.90;;
41311;SDS011;27061;41.648;24.568;2023-11-21T05:56:01;7.13;;;0.70;;
41311;SDS011;27061;41.648;24.568;2023-11-21T05:58:28;19.83;;;1.27;;
41311;SDS011;27061;41.648;24.568;2023-11-21T06:00:59;15.57;;;1.00;;
41311;SDS011;27061;41.648;24.568;2023-11-21T06:03:26;143.35;;;7.53;;
41311;SDS011;27061;41.648;24.568;2023-11-21T06:05:54;0.65;;;0.65;;
41311;SDS011;27061;41.648;24.568;2023-11-21T06:08:21;31.55;;;1.25;;
41311;SDS011;27061;41.648;24.568;2023-11-21T06:10:49;16.92;;;3.20;;
41311;SDS011;27061;41.648;24.568;2023-11-21T06:13:16;21.15;;;1.98;;
41311;SDS011;27061;41.648;24.568;2023-11-21T06:15:47;30.13;;;3.45;;
41311;SDS011;27061;41.648;24.568;2023-11-21T06:18:15;145.25;;;8.70;;
41311;SDS011;27061;41.648;24.568;2023-11-21T06:20:43;3.80;;;1.90;;
41311;SDS011;27061;41.648;24.568;2023-11-21T06:23:10;135.90;;;8.18;;
41311;SDS011;27061;41.648;24.568;2023-11-21T06:25:37;54.63;;;2.50;;
41311;SDS011;27061;41.648;24.568;2023-11-21T06:28:06;76.07;;;4.30;;
41311;SDS011;27061;41.648;24.568;2023-11-21T06:30:33;115.28;;;27.80;;
41311;SDS011;27061;41.648;24.568;2023-11-21T06:33:00;154.40;;;35.10;;
41311;SDS011;27061;41.648;24.568;2023-11-21T06:35:27;83.30;;;17.98;;
41311;SDS011;27061;41.648;24.568;2023-11-21T06:37:57;71.60;;;15.00;;
41311;SDS011;27061;41.648;24.568;2023-11-21T06:40:24;143.70;;;14.15;;
41311;SDS011;27061;41.648;24.568;2023-11-21T06:42:52;82.10;;;7.82;;
41311;SDS011;27061;41.648;24.568;2023-11-21T06:45:19;129.13;;;15.20;;
41311;SDS011;27061;41.648;24.568;2023-11-21T06:47:47;29.77;;;14.63;;
41311;SDS011;27061;41.648;24.568;2023-11-21T06:50:15;8.50;;;6.60;;
41311;SDS011;27061;41.648;24.568;2023-11-21T06:52:42;16.35;;;4.00;;
41311;SDS011;27061;41.648;24.568;2023-11-21T06:55:10;4.63;;;2.90;;
41311;SDS011;27061;41.648;24.568;2023-11-21T06:57:38;134.63;;;12.30;;
41311;SDS011;27061;41.648;24.568;2023-11-21T07:00:05;238.13;;;16.92;;
41311;SDS011;27061;41.648;24.568;2023-11-21T07:02:36;6.50;;;5.90;;
41311;SDS011;27061;41.648;24.568;2023-11-21T07:05:05;9.07;;;3.10;;
41311;SDS011;27061;41.648;24.568;2023-11-21T07:07:33;17.23;;;2.25;;
41311;SDS011;27061;41.648;24.568;2023-11-21T07:10:04;41.40;;;2.75;;
41311;SDS011;27061;41.648;24.568;2023-11-21T07:12:33;29.08;;;3.03;;
41311;SDS011;27061;41.648;24.568;2023-11-21T07:15:01;26.92;;;10.43;;
41311;SDS011;27061;41.648;24.568;2023-11-21T07:17:30;14.23;;;3.75;;
41311;SDS011;27061;41.648;24.568;2023-11-21T07:19:58;33.10;;;3.67;;
41311;SDS011;27061;41.648;24.568;2023-11-21T07:22:26;1.23;;;1.23;;
41311;SDS011;27061;41.648;24.568;2023-11-21T07:24:55;51.58;;;3.65;;
41311;SDS011;27061;41.648;24.568;2023-11-21T07:27:26;3.80;;;1.55;;
41311;SDS011;27061;41.648;24.568;2023-11-21T07:29:54;3.85;;;1.65;;
41311;SDS011;27061;41.648;24.568;2023-11-21T07:32:22;12.70;;;1.15;;
41311;SDS011;27061;41.648;24.568;2023-11-21T07:34:49;3.88;;;1.73;;
41311;SDS011;27061;41.648;24.568;2023-11-21T07:37:17;8.05;;;3.40;;
41311;SDS011;27061;41.648;24.568;2023-11-21T07:39:46;2.70;;;0.77;;
41311;SDS011;27061;41.648;24.568;2023-11-21T07:42:14;0.77;;;0.77;;
41311;SDS011;27061;41.648;24.568;2023-11-21T07:44:41;0.50;;;0.50;;
41311;SDS011;27061;41.648;24.568;2023-11-21T07:47:09;3.50;;;3.20;;
41311;SDS011;27061;41.648;24.568;2023-11-21T07:49:39;7.68;;;0.73;;
41311;SDS011;27061;41.648;24.568;2023-11-21T07:52:13;6.07;;;0.60;;
41311;SDS011;27061;41.648;24.568;2023-11-21T07:54:43;67.97;;;3.85;;
41311;SDS011;27061;41.648;24.568;2023-11-21T07:57:10;28.20;;;1.58;;
41311;SDS011;27061;41.648;24.568;2023-11-21T07:59:40;13.63;;;1.13;;
41311;SDS011;27061;41.648;24.568;2023-11-21T08:02:08;27.05;;;2.20;;
41311;SDS011;27061;41.648;24.568;2023-11-21T08:04:36;27.80;;;1.48;;
41311;SDS011;27061;41.648;24.568;2023-11-21T08:07:06;2.95;;;0.60;;
41311;SDS011;27061;41.648;24.568;2023-11-21T08:09:33;2.50;;;0.50;;
41311;SDS011;27061;41.648;24.568;2023-11-21T08:12:01;17.95;;;2.00;;
41311;SDS011;27061;41.648;24.568;2023-11-21T08:14:29;20.73;;;4.25;;
41311;SDS011;27061;41.648;24.568;2023-11-21T08:16:57;3.55;;;0.50;;
41311;SDS011;27061;41.648;24.568;2023-11-21T08:19:24;0.30;;;0.30;;
41311;SDS011;27061;41.648;24.568;2023-11-21T08:21:52;0.32;;;0.32;;
41311;SDS011;27061;41.648;24.568;2023-11-21T08:24:21;2.40;;;0.60;;
41311;SDS011;27061;41.648;24.568;2023-11-21T08:26:49;3.78;;;1.50;;
41311;SDS011;27061;41.648;24.568;2023-11-21T08:29:18;0.50;;;0.50;;
41311;SDS011;27061;41.648;24.568;2023-11-21T08:31:45;1.50;;;0.50;;
41311;SDS011;27061;41.648;24.568;2023-11-21T08:34:13;4.15;;;0.60;;
41311;SDS011;27061;41.648;24.568;2023-11-21T08:36:42;6.25;;;0.70;;
41311;SDS011;27061;41.648;24.568;2023-11-21T08:39:10;0.40;;;0.40;;
41311;SDS011;27061;41.648;24.568;2023-11-21T08:41:37;25.95;;;1.80;;
41311;SDS011;27061;41.648;24.568;2023-11-21T08:44:12;9.25;;;0.77;;
41311;SDS011;27061;41.648;24.568;2023-11-21T08:46:39;0.90;;;0.90;;
41311;SDS011;27061;41.648;24.568;2023-11-21T08:49:08;2.45;;;1.02;;
41311;SDS011;27061;41.648;24.568;2023-11-21T08:51:36;1.45;;;0.73;;
41311;SDS011;27061;41.648;24.568;2023-11-21T08:54:03;0.77;;;0.77;;
41311;SDS011;27061;41.648;24.568;2023-11-21T08:56:34;17.10;;;1.45;;
41311;SDS011;27061;41.648;24.568;2023-11-21T08:59:02;2.38;;;0.57;;
41311;SDS011;27061;41.648;24.568;2023-11-21T09:01:29;0.70;;;0.63;;
41311;SDS011;27061;41.648;24.568;2023-11-21T09:04:02;0.80;;;0.80;;
41311;SDS011;27061;41.648;24.568;2023-11-21T09:06:29;3.25;;;0.90;;
41311;SDS011;27061;41.648;24.568;2023-11-21T09:08:57;7.65;;;0.98;;
41311;SDS011;27061;41.648;24.568;2023-11-21T09:11:24;1.25;;;1.10;;
41311;SDS011;27061;41.648;24.568;2023-11-21T09:13:58;0.75;;;0.70;;
41311;SDS011;27061;41.648;24.568;2023-11-21T09:16:26;0.70;;;0.70;;
41311;SDS011;27061;41.648;24.568;2023-11-21T09:18:53;16.98;;;1.42;;
41311;SDS011;27061;41.648;24.568;2023-11-21T09:21:21;0.80;;;0.80;;
41311;SDS011;27061;41.648;24.568;2023-11-21T09:23:48;2.38;;;0.93;;
41311;SDS011;27061;41.648;24.568;2023-11-21T09:26:16;4.97;;;0.98;;
41311;SDS011;27061;41.648;24.568;2023-11-21T09:28:44;61.22;;;3.58;;
41311;SDS011;27061;41.648;24.568;2023-11-21T09:31:14;7.05;;;1.02;;
41311;SDS011;27061;41.648;24.568;2023-11-21T09:33:43;0.80;;;0.73;;
41311;SDS011;27061;41.648;24.568;2023-11-21T09:36:13;24.80;;;1.05;;
41311;SDS011;27061;41.648;24.568;2023-11-21T09:38:41;1.10;;;0.80;;
41311;SDS011;27061;41.648;24.568;2023-11-21T09:41:11;2.25;;;0.75;;
41311;SDS011;27061;41.648;24.568;2023-11-21T09:43:48;3.20;;;1.02;;
41311;SDS011;27061;41.648;24.568;2023-11-21T09:46:20;1.20;;;1.10;;
41311;SDS011;27061;41.648;24.568;2023-11-21T09:48:50;8.02;;;1.42;;
41311;SDS011;27061;41.648;24.568;2023-11-21T09:51:21;1.67;;;1.00;;
41311;SDS011;27061;41.648;24.568;2023-11-21T09:53:56;1.15;;;1.05;;
41311;SDS011;27061;41.648;24.568;2023-11-21T09:56:26;0.77;;;0.77;;
41311;SDS011;27061;41.648;24.568;2023-11-21T09:58:53;1.13;;;1.00;;
41311;SDS011;27061;41.648;24.568;2023-11-21T10:01:25;1.58;;;0.82;;
41311;SDS011;27061;41.648;24.568;2023-11-21T10:03:55;12.57;;;1.60;;
41311;SDS011;27061;41.648;24.568;2023-11-21T10:06:24;1.00;;;0.85;;
41311;SDS011;27061;41.648;24.568;2023-11-21T10:08:53;8.48;;;1.10;;
41311;SDS011;27061;41.648;24.568;2023-11-21T10:11:24;5.05;;;0.75;;
41311;SDS011;27061;41.648;24.568;2023-11-21T10:13:53;10.15;;;0.90;;
41311;SDS011;27061;41.648;24.568;2023-11-21T10:16:25;3.85;;;1.05;;
41311;SDS011;27061;41.648;24.568;2023-11-21T10:18:53;40.22;;;1.73;;
41311;SDS011;27061;41.648;24.568;2023-11-21T10:21:39;10.95;;;1.15;;
41311;SDS011;27061;41.648;24.568;2023-11-21T10:24:07;5.72;;;0.93;;
41311;SDS011;27061;41.648;24.568;2023-11-21T10:26:35;9.30;;;1.15;;
41311;SDS011;27061;41.648;24.568;2023-11-21T10:29:18;0.77;;;0.77;;
41311;SDS011;27061;41.648;24.568;2023-11-21T10:31:49;27.50;;;1.63;;
41311;SDS011;27061;41.648;24.568;2023-11-21T10:34:19;0.63;;;0.50;;
41311;SDS011;27061;41.648;24.568;2023-11-21T10:36:47;10.55;;;0.88;;
41311;SDS011;27061;41.648;24.568;2023-11-21T10:39:19;13.70;;;1.10;;
41311;SDS011;27061;41.648;24.568;2023-11-21T10:41:47;3.55;;;0.50;;
41311;SDS011;27061;41.648;24.568;2023-11-21T10:44:16;0.77;;;0.50;;
41311;SDS011;27061;41.648;24.568;2023-11-21T10:46:49;4.72;;;0.65;;
41311;SDS011;27061;41.648;24.568;2023-11-21T10:49:24;2.55;;;0.43;;
41311;SDS011;27061;41.648;24.568;2023-11-21T10:51:53;2.35;;;1.10;;
41311;SDS011;27061;41.648;24.568;2023-11-21T10:54:20;2.78;;;0.40;;
41311;SDS011;27061;41.648;24.568;2023-11-21T10:56:49;0.38;;;0.38;;
41311;SDS011;27061;41.648;24.568;2023-11-21T10:59:21;10.30;;;0.73;;
41311;SDS011;27061;41.648;24.568;2023-11-21T11:01:51;6.60;;;1.88;;
41311;SDS011;27061;41.648;24.568;2023-11-21T11:04:20;0.80;;;0.52;;
41311;SDS011;27061;41.648;24.568;2023-11-21T11:06:51;4.78;;;0.30;;
41311;SDS011;27061;41.648;24.568;2023-11-21T11:11:51;15.50;;;7.20;;
41311;SDS011;27061;41.648;24.568;2023-11-21T11:14:19;16.10;;;0.90;;
41311;SDS011;27061;41.648;24.568;2023-11-21T11:16:53;7.85;;;0.52;;
41311;SDS011;27061;41.648;24.568;2023-11-21T11:19:22;3.30;;;0.50;;
41311;SDS011;27061;41.648;24.568;2023-11-21T11:22:03;0.50;;;0.50;;
41311;SDS011;27061;41.648;24.568;2023-11-21T11:28:12;13.57;;;0.85;;
41311;SDS011;27061;41.648;24.568;2023-11-21T11:39:26;0.80;;;0.45;;
41311;SDS011;27061;41.648;24.568;2023-11-21T11:41:55;0.60;;;0.60;;
41311;SDS011;27061;41.648;24.568;2023-11-21T11:47:24;0.90;;;0.55;;
41311;SDS011;27061;41.648;24.568;2023-11-21T11:49:58;2.50;;;0.52;;
41311;SDS011;27061;41.648;24.568;2023-11-21T11:55:17;7.43;;;0.95;;
41311;SDS011;27061;41.648;24.568;2023-11-21T11:57:47;2.40;;;0.60;;
41311;SDS011;27061;41.648;24.568;2023-11-21T12:02:56;3.88;;;0.50;;
41311;SDS011;27061;41.648;24.568;2023-11-21T12:05:29;0.60;;;0.60;;
41311;SDS011;27061;41.648;24.568;2023-11-21T12:08:08;0.98;;;0.50;;
41311;SDS011;27061;41.648;24.568;2023-11-21T12:10:37;1.17;;;0.55;;
41311;SDS011;27061;41.648;24.568;2023-11-21T12:13:07;0.43;;;0.43;;
41311;SDS011;27061;41.648;24.568;2023-11-21T12:15:37;3.92;;;0.70;;
41311;SDS011;27061;41.648;24.568;2023-11-21T12:18:07;1.38;;;0.50;;
41311;SDS011;27061;41.648;24.568;2023-11-21T12:20:35;30.33;;;2.15;;
41311;SDS011;27061;41.648;24.568;2023-11-21T12:23:06;12.85;;;1.42;;
41311;SDS011;27061;41.648;24.568;2023-11-21T12:25:36;1.52;;;0.52;;
41311;SDS011;27061;41.648;24.568;2023-11-21T12:28:04;26.90;;;1.55;;
41311;SDS011;27061;41.648;24.568;2023-11-21T12:30:36;2.38;;;0.50;;
41311;SDS011;27061;41.648;24.568;2023-11-21T12:33:05;3.35;;;0.70;;
41311;SDS011;27061;41.648;24.568;2023-11-21T12:35:36;7.05;;;0.73;;
41311;SDS011;27061;41.648;24.568;2023-11-21T12:38:05;11.52;;;2.60;;
41311;SDS011;27061;41.648;24.568;2023-11-21T12:40:36;0.80;;;0.68;;
41311;SDS011;27061;41.648;24.568;2023-11-21T12:43:06;0.88;;;0.50;;
41311;SDS011;27061;41.648;24.568;2023-11-21T12:45:34;1.17;;;0.80;;
41311;SDS011;27061;41.648;24.568;2023-11-21T12:48:03;23.02;;;1.40;;
41311;SDS011;27061;41.648;24.568;2023-11-21T12:50:36;3.42;;;0.40;;
41311;SDS011;27061;41.648;24.568;2023-11-21T12:53:12;0.75;;;0.75;;
41311;SDS011;27061;41.648;24.568;2023-11-21T12:55:43;4.25;;;0.50;;
41311;SDS011;27061;41.648;24.568;2023-11-21T12:58:17;2.47;;;0.80;;
41311;SDS011;27061;41.648;24.568;2023-11-21T13:00:47;2.10;;;0.60;;
41311;SDS011;27061;41.648;24.568;2023-11-21T13:03:16;0.82;;;0.50;;
41311;SDS011;27061;41.648;24.568;2023-11-21T13:08:22;6.57;;;0.60;;
41311;SDS011;27061;41.648;24.568;2023-11-21T13:10:52;6.55;;;0.57;;
41311;SDS011;27061;41.648;24.568;2023-11-21T13:13:23;4.03;;;0.55;;
41311;SDS011;27061;41.648;24.568;2023-11-21T13:15:56;2.15;;;0.50;;
41311;SDS011;27061;41.648;24.568;2023-11-21T13:18:28;0.68;;;0.68;;
41311;SDS011;27061;41.648;24.568;2023-11-21T13:20:59;0.82;;;0.70;;
41311;SDS011;27061;41.648;24.568;2023-11-21T13:23:29;3.92;;;1.20;;
41311;SDS011;27061;41.648;24.568;2023-11-21T13:26:03;0.68;;;0.68;;
41311;SDS011;27061;41.648;24.568;2023-11-21T13:28:34;0.90;;;0.57;;
41311;SDS011;27061;41.648;24.568;2023-11-21T13:31:05;0.60;;;0.60;;
41311;SDS011;27061;41.648;24.568;2023-11-21T13:33:49;9.60;;;1.05;;
41311;SDS011;27061;41.648;24.568;2023-11-21T13:36:26;1.70;;;0.68;;
41311;SDS011;27061;41.648;24.568;2023-11-21T13:38:57;0.95;;;0.80;;
41311;SDS011;27061;41.648;24.568;2023-11-21T13:41:25;1.08;;;0.40;;
41311;SDS011;27061;41.648;24.568;2023-11-21T13:43:58;5.57;;;0.50;;
41311;SDS011;27061;41.648;24.568;2023-11-21T13:46:52;6.35;;;0.70;;
41311;SDS011;27061;41.648;24.568;2023-11-21T13:49:20;5.00;;;0.70;;
41311;SDS011;27061;41.648;24.568;2023-11-21T13:51:48;3.08;;;0.80;;
41311;SDS011;27061;41.648;24.568;2023-11-21T13:54:20;0.68;;;0.68;;
41311;SDS011;27061;41.648;24.568;2023-11-21T13:56:50;2.53;;;0.40;;
41311;SDS011;27061;41.648;24.568;2023-11-21T13:59:18;1.58;;;0.80;;
41311;SDS011;27061;41.648;24.568;2023-11-21T14:01:52;1.70;;;0.90;;
41311;SDS011;27061;41.648;24.568;2023-11-21T14:04:21;9.63;;;0.73;;
41311;SDS011;27061;41.648;24.568;2023-11-21T14:06:58;0.68;;;0.43;;
41311;SDS011;27061;41.648;24.568;2023-11-21T14:09:28;1.48;;;0.57;;
41311;SDS011;27061;41.648;24.568;2023-11-21T14:12:11;2.42;;;0.65;;
41311;SDS011;27061;41.648;24.568;2023-11-21T14:14:41;4.25;;;0.52;;
41311;SDS011;27061;41.648;24.568;2023-11-21T14:17:15;7.88;;;0.90;;
41311;SDS011;27061;41.648;24.568;2023-11-21T14:19:42;2.72;;;0.88;;
41311;SDS011;27061;41.648;24.568;2023-11-21T14:22:11;0.68;;;0.68;;
41311;SDS011;27061;41.648;24.568;2023-11-21T14:24:39;1.25;;;0.90;;
41311;SDS011;27061;41.648;24.568;2023-11-21T14:27:14;0.80;;;0.65;;
41311;SDS011;27061;41.648;24.568;2023-11-21T14:29:44;0.68;;;0.60;;
41311;SDS011;27061;41.648;24.568;2023-11-21T14:32:12;1.20;;;0.77;;
41311;SDS011;27061;41.648;24.568;2023-11-21T14:34:41;1.33;;;0.65;;
41311;SDS011;27061;41.648;24.568;2023-11-21T14:37:13;5.78;;;0.65;;
41311;SDS011;27061;41.648;24.568;2023-11-21T14:39:40;2.75;;;0.80;;
41311;SDS011;27061;41.648;24.568;2023-11-21T14:42:11;2.22;;;2.03;;
41311;SDS011;27061;41.648;24.568;2023-11-21T14:44:42;5.88;;;1.13;;
41311;SDS011;27061;41.648;24.568;2023-11-21T14:47:11;11.15;;;1.73;;
41311;SDS011;27061;41.648;24.568;2023-11-21T14:49:54;7.55;;;1.33;;
41311;SDS011;27061;41.648;24.568;2023-11-21T14:52:23;3.90;;;1.40;;
41311;SDS011;27061;41.648;24.568;2023-11-21T14:55:02;4.95;;;3.72;;
41311;SDS011;27061;41.648;24.568;2023-11-21T14:57:57;1.98;;;1.85;;
41311;SDS011;27061;41.648;24.568;2023-11-21T15:00:29;1.52;;;1.42;;
41311;SDS011;27061;41.648;24.568;2023-11-21T15:03:00;3.30;;;0.80;;
41311;SDS011;27061;41.648;24.568;2023-11-21T15:05:31;7.30;;;0.90;;
41311;SDS011;27061;41.648;24.568;2023-11-21T15:08:02;2.28;;;0.60;;